Time;durP1;ratioP1;P1;durP2;ratioP2;P2;SDS_P1;SDS_P2;PMS_P1;PMS_P2;Temp;Humidity;BMP_temperature;BMP_pressure;BME280_temperature;BME280_humidity;BME280_pressure;Samples;Min_cycle;Max_cycle;Signal;HPM_P1;HPM_P2
2023/04/01 00:01:52;;;;;;;7.40;2.40;;;;;;;5.25;72.77;98628.33;79563;1296;3013432;-63
2023/04/01 00:04:20;;;;;;;6.70;2.00;;;;;;;5.25;72.76;98633.55;78390;1298;3028348;-70
2023/04/01 00:06:47;;;;;;;7.60;2.30;;;;;;;5.11;73.27;98632.20;79602;1298;3014111;-70
2023/04/01 00:09:14;;;;;;;8.30;2.90;;;;;;;5.21;73.18;98622.11;79524;1296;3011844;-71
2023/04/01 00:11:44;;;;;;;9.00;2.40;;;;;;;5.25;72.79;98625.91;78425;1295;3056963;-71
2023/04/01 00:14:11;;;;;;;10.00;2.50;;;;;;;5.05;73.51;98627.11;79604;1298;3013440;-67
2023/04/01 00:16:37;;;;;;;7.00;2.10;;;;;;;5.08;73.42;98628.34;79572;1295;3011881;-72
2023/04/01 00:19:05;;;;;;;9.80;2.30;;;;;;;5.19;73.15;98623.26;78338;1298;3052183;-71
2023/04/01 00:21:32;;;;;;;6.30;2.10;;;;;;;5.23;72.87;98626.67;79658;1298;3013345;-67
2023/04/01 00:23:59;;;;;;;5.60;2.10;;;;;;;5.28;72.74;98625.23;79565;1298;3013221;-65
2023/04/01 00:26:26;;;;;;;10.10;2.60;;;;;;;5.23;72.84;98630.85;78340;1296;3030911;-68
2023/04/01 00:28:53;;;;;;;5.80;1.90;;;;;;;5.22;72.66;98628.31;79582;1294;3019014;-67
2023/04/01 00:31:20;;;;;;;12.80;2.40;;;;;;;5.13;72.69;98631.55;79518;1294;3013247;-70
2023/04/01 00:33:48;;;;;;;11.50;2.90;;;;;;;5.05;73.14;98630.73;78308;1297;3028765;-67
2023/04/01 00:36:19;;;;;;;8.30;2.30;;;;;;;5.09;72.73;98634.19;79489;1298;3013631;-69
2023/04/01 00:38:47;;;;;;;6.50;2.30;;;;;;;5.11;72.50;98632.17;78282;1298;3051615;-69
2023/04/01 00:41:16;;;;;;;5.20;1.70;;;;;;;5.07;72.39;98630.64;79591;1295;3013411;-69
2023/04/01 00:43:48;;;;;;;10.20;2.30;;;;;;;4.99;72.48;98636.62;78876;1296;3011842;-69
2023/04/01 00:46:15;;;;;;;7.50;1.90;;;;;;;5.07;72.49;98629.77;79600;1295;3012880;-68
2023/04/01 00:48:45;;;;;;;4.60;1.50;;;;;;;5.14;71.78;98629.05;79584;1298;3011509;-68
2023/04/01 00:51:18;;;;;;;5.50;1.80;;;;;;;5.12;71.66;98634.90;78347;1298;3052833;-67
2023/04/01 00:53:47;;;;;;;4.70;1.60;;;;;;;5.07;71.92;98634.48;79423;1296;3013718;-70
2023/04/01 00:56:22;;;;;;;6.20;1.50;;;;;;;5.06;72.17;98636.60;78085;1298;3050411;-70
2023/04/01 00:58:54;;;;;;;5.20;1.60;;;;;;;4.96;72.46;98639.50;78922;1295;3012915;-67
2023/04/01 01:01:21;;;;;;;5.00;1.50;;;;;;;4.88;72.70;98635.74;79341;1301;3011647;-70
2023/04/01 01:03:50;;;;;;;5.60;1.50;;;;;;;4.95;73.09;98634.70;78248;1301;3051267;-67
2023/04/01 01:06:23;;;;;;;10.90;1.90;;;;;;;4.92;73.38;98636.09;79346;1300;3013452;-64
2023/04/01 01:09:03;;;;;;;5.90;1.70;;;;;;;4.89;73.98;98634.32;78320;1297;3052334;-69
2023/04/01 01:11:47;;;;;;;7.30;1.60;;;;;;;4.84;74.25;98632.12;78543;1298;3051452;-66
2023/04/01 01:14:34;;;;;;;6.70;1.50;;;;;;;5.49;72.25;98634.16;78322;1300;3068879;-67
2023/04/01 01:17:08;;;;;;;5.90;1.50;;;;;;;5.90;70.17;98635.98;78319;1301;3051321;-65
2023/04/01 01:19:52;;;;;;;6.80;1.90;;;;;;;5.92;69.93;98635.71;79682;1293;3014129;-67
2023/04/01 01:22:26;;;;;;;6.40;1.70;;;;;;;5.72;70.69;98633.66;78236;1300;3050431;-69
2023/04/01 01:25:14;;;;;;;8.30;1.90;;;;;;;5.46;71.76;98641.11;79681;1293;3011642;-69
2023/04/01 01:27:49;;;;;;;5.20;1.90;;;;;;;5.29;72.81;98641.83;78425;1297;3050262;-68
2023/04/01 01:30:36;;;;;;;7.00;1.90;;;;;;;5.05;73.50;98638.88;79447;1295;3011745;-67
2023/04/01 01:33:17;;;;;;;7.90;2.00;;;;;;;4.98;74.27;98638.71;78194;1301;3052417;-70
2023/04/01 01:35:50;;;;;;;5.10;1.80;;;;;;;5.05;74.14;98635.63;78435;1297;3069598;-66
2023/04/01 01:38:21;;;;;;;6.90;1.90;;;;;;;5.03;74.32;98635.90;79578;1293;3013121;-63
2023/04/01 01:40:57;;;;;;;4.20;1.70;;;;;;;5.03;74.57;98637.63;78502;1297;3057674;-66
2023/04/01 01:43:26;;;;;;;6.90;1.90;;;;;;;4.98;74.87;98637.16;79323;1292;3013300;-69
2023/04/01 01:45:55;;;;;;;6.00;2.00;;;;;;;4.89;75.19;98634.13;79468;1293;3011943;-65
2023/04/01 01:48:23;;;;;;;8.60;1.80;;;;;;;4.93;75.60;98628.41;78453;1297;3053784;-68
2023/04/01 01:50:50;;;;;;;10.50;1.90;;;;;;;4.85;75.83;98631.95;79494;1300;3011693;-67
2023/04/01 01:53:17;;;;;;;2.10;1.20;;;;;;;4.79;76.49;98627.56;79452;1292;3013243;-65
2023/04/01 01:55:47;;;;;;;7.00;1.20;;;;;;;5.19;75.68;98630.02;78230;1293;3056090;-67
2023/04/01 01:58:40;;;;;;;4.20;1.50;;;;;;;5.60;74.49;98629.23;79706;1293;3013647;-70
2023/04/01 02:01:12;;;;;;;3.40;1.80;;;;;;;5.72;73.85;98624.45;78251;1297;3050294;-69
2023/04/01 02:03:39;;;;;;;8.80;2.00;;;;;;;5.46;74.23;98626.70;79447;1293;3013597;-67
2023/04/01 02:06:10;;;;;;;6.00;2.00;;;;;;;5.28;74.85;98625.74;78255;1299;3052543;-68
2023/04/01 02:09:03;;;;;;;5.60;1.50;;;;;;;5.24;75.52;98622.80;79555;1295;3013633;-66
2023/04/01 02:11:40;;;;;;;7.80;2.10;;;;;;;5.01;75.84;98623.15;78113;1301;3052155;-66
2023/04/01 02:14:23;;;;;;;3.50;1.90;;;;;;;4.87;76.66;98625.06;78269;1295;3057532;-66
2023/04/01 02:17:04;;;;;;;5.50;1.90;;;;;;;4.80;77.19;98627.33;78054;1301;3050601;-68
2023/04/01 02:19:36;;;;;;;3.80;1.90;;;;;;;4.71;77.66;98631.08;78272;1295;3054786;-70
2023/04/01 02:22:04;;;;;;;10.90;2.50;;;;;;;4.69;78.97;98633.77;79480;1301;3011815;-70
2023/04/01 02:24:32;;;;;;;5.20;1.60;;;;;;;4.59;79.72;98633.19;78313;1298;3052153;-64
2023/04/01 02:27:10;;;;;;;6.10;1.70;;;;;;;5.10;78.55;98633.41;78306;1300;3053695;-68
2023/04/01 02:29:37;;;;;;;6.80;1.80;;;;;;;5.56;76.47;98633.66;79510;1301;3018511;-68
2023/04/01 02:32:09;;;;;;;4.40;2.10;;;;;;;5.47;76.57;98634.84;78914;1298;3013712;-69
2023/04/01 02:34:37;;;;;;;8.20;2.00;;;;;;;5.32;77.59;98635.95;79505;1294;3013470;-70
2023/04/01 02:37:04;;;;;;;6.70;2.00;;;;;;;5.16;78.67;98641.27;79521;1295;3012125;-68
2023/04/01 02:39:36;;;;;;;2.80;1.70;;;;;;;5.14;79.29;98641.41;78397;1298;3049816;-68
2023/04/01 02:42:04;;;;;;;5.50;2.10;;;;;;;5.05;79.65;98645.13;79642;1295;3013098;-65
2023/04/01 02:44:31;;;;;;;9.20;2.00;;;;;;;4.81;81.45;98649.82;79630;1297;3011319;-70
2023/04/01 02:47:01;;;;;;;5.00;2.00;;;;;;;4.65;82.70;98647.67;78332;1298;3051471;-73
2023/04/01 02:49:27;;;;;;;4.60;1.50;;;;;;;4.64;83.49;98646.50;79376;1296;3013022;-67
2023/04/01 02:51:54;;;;;;;4.30;1.40;;;;;;;5.04;82.63;98645.36;79550;1295;3011653;-65
2023/04/01 02:54:22;;;;;;;7.70;1.60;;;;;;;5.65;79.49;98643.39;78223;1298;3028104;-67
2023/04/01 02:56:49;;;;;;;6.10;1.70;;;;;;;5.56;78.91;98643.00;79589;1298;3013307;-67
2023/04/01 02:59:16;;;;;;;4.40;2.30;;;;;;;5.32;79.74;98645.15;79565;1297;3011651;-64
2023/04/01 03:01:44;;;;;;;4.30;1.90;;;;;;;5.33;79.83;98647.02;78102;1294;3050479;-67
2023/04/01 03:04:11;;;;;;;5.90;1.60;;;;;;;5.11;80.46;98643.44;79677;1295;3013691;-67
2023/04/01 03:06:39;;;;;;;5.20;1.70;;;;;;;4.98;80.42;98649.13;79476;1295;3011633;-70
2023/04/01 03:09:07;;;;;;;6.80;1.90;;;;;;;4.83;81.02;98647.30;78235;1299;3050015;-63
2023/04/01 03:11:34;;;;;;;4.40;1.90;;;;;;;4.73;81.66;98644.86;79456;1301;3013112;-71
2023/04/01 03:14:03;;;;;;;8.80;1.90;;;;;;;4.72;82.13;98645.61;79601;1296;3013240;-69
2023/04/01 03:16:31;;;;;;;4.00;2.10;;;;;;;4.54;82.40;98643.67;78219;1295;3052241;-65
2023/04/01 03:18:59;;;;;;;2.80;1.10;;;;;;;4.37;83.52;98644.14;79325;1294;3013027;-64
2023/04/01 03:21:30;;;;;;;4.90;1.60;;;;;;;4.80;82.65;98651.77;78387;1294;3053006;-69
2023/04/01 03:23:56;;;;;;;4.70;1.50;;;;;;;5.34;80.54;98649.92;79492;1299;3012981;-70
2023/04/01 03:26:28;;;;;;;8.30;1.60;;;;;;;5.23;80.02;98650.85;78155;1300;3052155;-70
2023/04/01 03:28:55;;;;;;;6.30;1.70;;;;;;;4.99;80.99;98658.48;79529;1300;3011701;-65
2023/04/01 03:31:22;;;;;;;5.00;1.60;;;;;;;4.95;81.33;98654.50;79503;1298;3011820;-68
2023/04/01 03:33:52;;;;;;;4.10;1.80;;;;;;;4.97;81.07;98656.00;78334;1295;3048505;-69
2023/04/01 03:36:19;;;;;;;5.70;2.50;;;;;;;4.89;81.52;98660.36;79481;1295;3013176;-72
2023/04/01 03:38:47;;;;;;;6.20;2.50;;;;;;;4.75;81.96;98662.10;79542;1295;3013605;-69
2023/04/01 03:41:16;;;;;;;5.40;2.30;;;;;;;4.74;82.26;98663.17;78346;1297;3051781;-71
2023/04/01 03:43:43;;;;;;;5.00;2.60;;;;;;;4.59;82.85;98667.92;79503;1299;3013187;-69
2023/04/01 03:46:10;;;;;;;3.60;1.80;;;;;;;4.46;84.17;98666.77;79627;1296;3011524;-68
2023/04/01 03:48:38;;;;;;;2.00;1.50;;;;;;;4.83;82.95;98671.23;78207;1295;3048207;-66
2023/04/01 03:51:09;;;;;;;7.00;1.70;;;;;;;5.19;81.67;98671.52;79529;1300;3012226;-66
2023/04/01 03:53:37;;;;;;;4.20;1.50;;;;;;;5.35;80.81;98669.28;78361;1297;3028129;-69
2023/04/01 03:56:08;;;;;;;3.20;1.70;;;;;;;5.10;81.40;98664.66;79616;1295;3011728;-71
2023/04/01 03:58:39;;;;;;;7.80;2.00;;;;;;;5.08;81.70;98661.98;78368;1296;3070076;-70
2023/04/01 04:01:17;;;;;;;4.70;1.70;;;;;;;4.73;83.32;98662.36;79616;1298;3013249;-68
2023/04/01 04:03:49;;;;;;;5.50;2.10;;;;;;;4.68;84.64;98663.11;78378;1297;3049954;-68
2023/04/01 04:06:17;;;;;;;7.00;2.20;;;;;;;4.36;85.69;98665.19;79614;1295;3011672;-68
2023/04/01 04:08:45;;;;;;;6.80;2.00;;;;;;;4.33;87.18;98666.71;78232;1299;3027781;-68
2023/04/01 04:11:13;;;;;;;5.20;1.60;;;;;;;4.52;87.07;98673.27;79569;1298;3012918;-69
2023/04/01 04:13:49;;;;;;;6.50;1.70;;;;;;;4.98;84.94;98673.63;78311;1298;3070412;-71
2023/04/01 04:16:16;;;;;;;5.70;1.90;;;;;;;5.07;83.89;98674.70;79533;1298;3013282;-72
2023/04/01 04:18:47;;;;;;;11.10;2.00;;;;;;;5.34;82.37;98674.90;78358;1296;3056270;-64
2023/04/01 04:21:14;;;;;;;6.80;2.00;;;;;;;4.92;83.69;98681.70;79497;1295;3013934;-67
2023/04/01 04:23:42;;;;;;;7.10;2.10;;;;;;;4.83;84.36;98684.41;79592;1294;3013129;-70
2023/04/01 04:26:12;;;;;;;5.10;2.40;;;;;;;4.59;85.75;98680.92;78377;1295;3052535;-68
2023/04/01 04:28:39;;;;;;;4.30;2.20;;;;;;;4.68;85.45;98684.81;79689;1298;3013415;-68
2023/04/01 04:31:06;;;;;;;5.60;2.20;;;;;;;4.52;86.57;98686.61;79592;1295;3011609;-69
2023/04/01 04:33:36;;;;;;;5.30;1.80;;;;;;;4.55;86.82;98688.39;78202;1295;3056075;-69
2023/04/01 04:36:03;;;;;;;3.40;1.70;;;;;;;4.92;85.84;98685.66;79369;1295;3013715;-69
2023/04/01 04:38:36;;;;;;;5.10;2.00;;;;;;;5.14;83.86;98685.48;78214;1300;3052060;-70
2023/04/01 04:41:03;;;;;;;5.20;2.00;;;;;;;5.03;83.63;98689.85;79289;1298;3013295;-65
2023/04/01 04:43:30;;;;;;;4.90;2.00;;;;;;;5.02;83.85;98688.19;79375;1301;3012534;-65
2023/04/01 04:45:58;;;;;;;6.30;2.80;;;;;;;4.98;83.92;98692.17;78144;1295;3028452;-67
2023/04/01 04:48:24;;;;;;;6.10;2.10;;;;;;;4.82;84.23;98698.01;79381;1300;3013538;-68
2023/04/01 04:50:56;;;;;;;8.70;1.70;;;;;;;4.75;84.63;98700.80;78832;1296;3013177;-69
2023/04/01 04:53:25;;;;;;;8.50;2.00;;;;;;;4.46;86.00;98697.31;79400;1295;3011941;-71
2023/04/01 04:55:54;;;;;;;4.00;1.80;;;;;;;4.31;87.07;98697.52;78877;1295;3013073;-69
2023/04/01 04:58:36;;;;;;;5.30;1.90;;;;;;;4.84;85.70;98695.83;78204;1297;3053418;-69
2023/04/01 05:01:10;;;;;;;6.40;1.80;;;;;;;5.12;83.51;98705.52;79427;1298;3013087;-68
2023/04/01 05:03:39;;;;;;;6.60;1.90;;;;;;;5.19;82.33;98706.24;78154;1295;3052360;-69
2023/04/01 05:06:07;;;;;;;7.60;2.20;;;;;;;4.91;82.79;98711.45;79414;1295;3013141;-69
2023/04/01 05:08:34;;;;;;;7.40;2.20;;;;;;;4.90;83.51;98710.29;79398;1295;3013354;-66
2023/04/01 05:11:06;;;;;;;3.90;1.80;;;;;;;4.76;84.02;98713.88;78207;1300;3048553;-68
2023/04/01 05:13:33;;;;;;;4.40;1.90;;;;;;;4.74;84.32;98716.23;79503;1300;3011758;-69
2023/04/01 05:16:02;;;;;;;6.70;2.40;;;;;;;4.51;85.48;98723.43;78870;1300;3011711;-66
2023/04/01 05:18:30;;;;;;;7.20;1.80;;;;;;;4.42;86.43;98719.53;79342;1301;3013406;-68
2023/04/01 05:20:57;;;;;;;7.10;2.10;;;;;;;4.78;85.82;98720.75;79384;1300;3012871;-71
2023/04/01 05:23:26;;;;;;;4.50;1.90;;;;;;;5.30;83.20;98721.83;78218;1301;3048835;-65
2023/04/01 05:25:53;;;;;;;6.80;2.20;;;;;;;5.35;82.18;98718.98;79374;1297;3014800;-71
2023/04/01 05:28:20;;;;;;;9.10;2.30;;;;;;;5.17;82.81;98728.89;79336;1299;3012225;-72
2023/04/01 05:30:50;;;;;;;7.00;2.50;;;;;;;4.88;84.32;98724.63;78222;1301;3054526;-72
2023/04/01 05:33:22;;;;;;;6.10;2.10;;;;;;;4.91;84.47;98725.50;79372;1297;3012930;-70
2023/04/01 05:35:50;;;;;;;11.10;2.80;;;;;;;4.85;84.99;98727.04;78139;1300;3053381;-66
2023/04/01 05:38:17;;;;;;;4.90;2.00;;;;;;;4.86;85.29;98730.59;79376;1298;3013025;-68
2023/04/01 05:40:45;;;;;;;8.00;2.30;;;;;;;4.83;85.72;98734.92;79409;1300;3011662;-70
2023/04/01 05:43:13;;;;;;;4.80;1.80;;;;;;;5.27;84.94;98731.86;78119;1300;3049999;-70
2023/04/01 05:45:42;;;;;;;5.30;1.80;;;;;;;6.05;81.62;98725.23;79358;1298;3012155;-73
2023/04/01 05:48:13;;;;;;;4.90;2.10;;;;;;;5.98;80.33;98726.85;78154;1301;3052382;-69
2023/04/01 05:50:44;;;;;;;8.20;2.30;;;;;;;5.71;81.66;98727.19;79295;1297;3012875;-70
2023/04/01 05:53:13;;;;;;;4.50;1.90;;;;;;;5.62;81.81;98729.06;78136;1298;3051072;-69
2023/04/01 05:55:42;;;;;;;4.20;1.70;;;;;;;5.29;83.47;98730.73;79444;1297;3011753;-69
2023/04/01 05:58:11;;;;;;;7.00;2.00;;;;;;;5.25;84.41;98737.20;78114;1300;3028399;-67
2023/04/01 06:00:38;;;;;;;5.10;2.20;;;;;;;5.26;84.68;98736.11;79474;1296;3012737;-69
2023/04/01 06:03:25;;;;;;;6.00;1.50;;;;;;;5.32;84.86;98739.58;78219;1300;3052173;-68
2023/04/01 06:05:52;;;;;;;4.20;1.90;;;;;;;5.60;84.13;98736.80;79463;1300;3018384;-69
2023/04/01 06:08:20;;;;;;;7.90;2.60;;;;;;;5.79;83.19;98737.89;79435;1300;3011879;-65
2023/04/01 06:11:01;;;;;;;3.60;2.00;;;;;;;5.86;83.40;98736.52;78202;1298;3056269;-67
2023/04/01 06:14:00;;;;;;;9.90;2.30;;;;;;;5.78;83.25;98738.31;78168;1301;3050269;-71
2023/04/01 06:16:34;;;;;;;3.00;1.90;;;;;;;5.77;83.78;98743.57;78161;1298;3053165;-69
2023/04/01 06:19:39;;;;;;;6.30;2.30;;;;;;;5.40;85.18;98749.78;79360;1300;3011984;-69
2023/04/01 06:22:21;;;;;;;8.40;2.50;;;;;;;5.42;86.39;98747.44;78092;1301;3053687;-66
2023/04/01 06:24:50;;;;;;;5.40;2.70;;;;;;;5.28;87.00;98749.52;78184;1300;3052867;-69
2023/04/01 06:27:38;;;;;;;4.00;1.80;;;;;;;5.16;87.94;98751.72;79392;1298;3012607;-68
2023/04/01 06:30:10;;;;;;;8.70;2.00;;;;;;;5.99;86.48;98746.42;78123;1301;3057364;-71
2023/04/01 06:33:02;;;;;;;5.30;2.00;;;;;;;6.42;83.45;98746.75;79460;1301;3013714;-68
2023/04/01 06:35:34;;;;;;;7.20;2.50;;;;;;;6.43;83.40;98747.73;78058;1298;3053069;-69
2023/04/01 06:38:19;;;;;;;13.20;4.00;;;;;;;6.32;83.28;98750.56;79455;1298;3011727;-69
2023/04/01 06:40:52;;;;;;;12.40;3.70;;;;;;;5.90;85.34;98760.62;78233;1301;3052403;-70
2023/04/01 06:43:37;;;;;;;6.10;2.40;;;;;;;5.50;87.42;98762.68;79624;1301;3013092;-69
2023/04/01 06:46:39;;;;;;;8.00;2.80;;;;;;;5.60;88.12;98764.94;78321;1297;3069336;-72
2023/04/01 06:49:52;;;;;;;5.40;1.60;;;;;;;5.63;88.71;98759.90;78111;1297;3052291;-67
2023/04/01 06:53:15;;;;;;;4.00;1.90;;;;;;;6.34;86.34;98759.88;78246;1300;3055981;-71
2023/04/01 06:56:04;;;;;;;4.40;2.00;;;;;;;6.41;85.58;98761.56;78091;1297;3048866;-70
2023/04/01 06:59:01;;;;;;;7.60;2.10;;;;;;;6.37;85.24;98753.92;77987;1301;3054323;-71
2023/04/01 07:01:48;;;;;;;5.40;2.70;;;;;;;6.47;84.96;98759.48;79425;1298;3011766;-65
2023/04/01 07:04:36;;;;;;;10.40;3.60;;;;;;;6.13;85.98;98755.09;78158;1299;3053220;-69
2023/04/01 07:07:14;;;;;;;16.00;4.20;;;;;;;6.01;86.94;98757.98;78146;1301;3053013;-70
2023/04/01 07:09:51;;;;;;;20.10;8.00;;;;;;;5.73;89.01;98763.40;78096;1304;3068806;-71
2023/04/01 07:12:33;;;;;;;4.80;2.80;;;;;;;5.72;89.73;98755.60;78291;1301;3052838;-71
2023/04/01 07:15:32;;;;;;;7.30;2.90;;;;;;;6.24;88.42;98755.73;78206;1300;3056789;-66
2023/04/01 07:18:04;;;;;;;10.90;4.60;;;;;;;6.43;86.60;98758.84;78040;1301;3050428;-67
2023/04/01 07:20:32;;;;;;;8.90;3.20;;;;;;;6.69;85.81;98763.17;77806;1295;3012929;-70
2023/04/01 07:23:03;;;;;;;8.60;3.60;;;;;;;6.72;85.17;98762.15;78314;1303;3053903;-69
2023/04/01 07:25:45;;;;;;;8.20;3.50;;;;;;;6.48;85.96;98768.13;78206;1301;3052581;-67
2023/04/01 07:28:36;;;;;;;7.90;3.50;;;;;;;5.97;88.53;98763.36;78085;1301;3053005;-66
2023/04/01 07:31:16;;;;;;;7.10;2.90;;;;;;;6.09;88.41;98763.83;78161;1294;3069599;-63
2023/04/01 07:34:10;;;;;;;7.00;2.30;;;;;;;6.01;88.82;98762.66;79393;1295;3011789;-67
2023/04/01 07:36:38;;;;;;;6.20;2.50;;;;;;;6.58;87.65;98761.33;78304;1295;3058212;-67
2023/04/01 07:39:35;;;;;;;8.00;2.40;;;;;;;6.82;85.49;98762.48;79629;1295;3012890;-67
2023/04/01 07:42:46;;;;;;;5.80;3.00;;;;;;;7.07;84.30;98758.94;78305;1299;3051196;-69
2023/04/01 07:45:26;;;;;;;6.20;2.90;;;;;;;6.95;84.10;98757.53;78238;1301;3052134;-68
2023/04/01 07:48:32;;;;;;;8.10;3.70;;;;;;;6.28;86.57;98762.30;78239;1301;3054685;-68
2023/04/01 07:51:03;;;;;;;6.50;3.20;;;;;;;6.03;88.73;98758.05;78291;1297;3070440;-72
2023/04/01 07:53:38;;;;;;;12.60;3.90;;;;;;;6.16;88.58;98758.42;79481;1299;3011595;-69
2023/04/01 07:56:36;;;;;;;3.50;2.00;;;;;;;6.19;88.59;98756.69;78193;1300;3058077;-69
2023/04/01 07:59:22;;;;;;;6.40;2.70;;;;;;;6.54;87.16;98761.04;77906;1295;3049302;-70
2023/04/01 08:02:06;;;;;;;11.40;2.80;;;;;;;6.83;85.78;98763.80;78191;1300;3054137;-71
2023/04/01 08:04:44;;;;;;;9.90;2.90;;;;;;;6.78;85.15;98772.41;78911;1298;3011657;-71
2023/04/01 08:07:26;;;;;;;8.90;3.50;;;;;;;6.59;85.80;98771.38;78160;1296;3050196;-71
2023/04/01 08:10:56;;;;;;;7.30;2.60;;;;;;;6.43;86.30;98770.48;78132;1301;3052830;-67
2023/04/01 08:14:12;;;;;;;9.30;3.60;;;;;;;6.37;86.59;98771.70;78242;1299;3053454;-68
2023/04/01 08:17:05;;;;;;;5.90;3.30;;;;;;;6.33;86.96;98775.90;78237;1296;3069076;-68
2023/04/01 08:20:00;;;;;;;5.00;2.40;;;;;;;6.25;87.48;98784.87;78232;1295;3051706;-67
2023/04/01 08:22:57;;;;;;;8.30;2.60;;;;;;;6.62;86.65;98785.87;78235;1296;3057306;-68
2023/04/01 08:25:36;;;;;;;9.30;3.00;;;;;;;6.86;85.28;98786.23;78206;1301;3050045;-70
2023/04/01 08:28:11;;;;;;;7.50;2.60;;;;;;;7.03;84.12;98781.66;79494;1295;3011657;-68
2023/04/01 08:31:04;;;;;;;8.90;2.80;;;;;;;6.87;84.32;98787.93;78205;1301;3050399;-67
2023/04/01 08:33:33;;;;;;;9.10;3.20;;;;;;;6.64;85.14;98782.23;78191;1300;3053734;-65
2023/04/01 08:36:19;;;;;;;8.40;3.10;;;;;;;6.51;86.22;98774.59;79409;1301;3011832;-67
2023/04/01 08:39:23;;;;;;;7.50;3.20;;;;;;;6.59;85.99;98778.37;78265;1301;3068863;-66
2023/04/01 08:43:40;;;;;;;6.40;2.70;;;;;;;6.80;86.48;98782.94;80185;1304;3011543;-69
2023/04/01 08:46:36;;;;;;;7.20;2.70;;;;;;;7.45;83.20;98775.73;77871;1306;3054815;-66
2023/04/01 08:49:17;;;;;;;7.90;3.10;;;;;;;7.33;82.40;98774.04;77867;1306;3050670;-67
2023/04/01 08:51:48;;;;;;;10.00;3.90;;;;;;;7.16;83.40;98773.61;77872;1308;3053583;-66
2023/04/01 08:54:21;;;;;;;11.80;3.50;;;;;;;6.86;84.66;98774.23;79329;1308;3011826;-69
2023/04/01 08:57:08;;;;;;;10.10;4.00;;;;;;;6.93;85.04;98779.57;75920;1308;5516067;-68
2023/04/01 08:59:48;;;;;;;12.00;4.20;;;;;;;6.90;85.23;98769.84;78202;1305;3051015;-68
2023/04/01 09:02:45;;;;;;;6.60;2.50;;;;;;;6.92;85.69;98777.55;78029;1299;3057142;-67
2023/04/01 09:05:32;;;;;;;8.60;2.60;;;;;;;7.37;83.85;98777.23;78089;1299;3049249;-66
2023/04/01 09:08:22;;;;;;;8.20;2.90;;;;;;;7.92;82.05;98767.90;78140;1299;3054156;-67
2023/04/01 09:11:31;;;;;;;11.00;3.60;;;;;;;7.96;81.12;98767.14;78090;1303;3049895;-75
2023/04/01 09:14:56;;;;;;;9.70;3.90;;;;;;;7.24;83.46;98780.26;78204;1301;3053224;-67
2023/04/01 09:17:47;;;;;;;9.10;3.90;;;;;;;6.81;85.73;98778.85;78149;1301;3054211;-69
2023/04/01 09:20:34;;;;;;;14.30;4.00;;;;;;;6.97;86.18;98783.20;78145;1301;3069649;-70
2023/04/01 09:23:39;;;;;;;9.40;4.00;;;;;;;7.01;86.02;98778.98;78117;1307;3051355;-66
2023/04/01 09:26:13;;;;;;;;;;;;;;;7.12;85.58;98778.86;77670;1307;3057083;-68
2023/04/01 09:29:16;;;;;;;6.80;3.10;;;;;;;7.78;83.04;98774.13;79440;1298;3011600;-70
2023/04/01 09:32:10;;;;;;;11.30;3.00;;;;;;;8.06;80.58;98773.89;78005;1304;3052827;-69
2023/04/01 09:35:24;;;;;;;5.60;2.60;;;;;;;8.02;80.24;98772.86;78254;1302;3049633;-67
2023/04/01 09:38:00;;;;;;;11.40;3.70;;;;;;;7.79;80.79;98775.30;78196;1301;3052142;-70
2023/04/01 09:41:00;;;;;;;8.60;3.80;;;;;;;7.42;82.53;98777.30;78853;1302;3011822;-66
2023/04/01 09:44:01;;;;;;;10.00;4.50;;;;;;;7.47;83.24;98781.36;78276;1306;3053772;-68
2023/04/01 09:46:54;;;;;;;6.90;3.60;;;;;;;7.43;83.46;98781.45;78202;1301;3070072;-68
2023/04/01 09:49:44;;;;;;;7.80;3.40;;;;;;;7.32;83.99;98784.71;78025;1302;3052155;-67
2023/04/01 09:52:32;;;;;;;6.90;2.50;;;;;;;7.24;84.94;98786.70;78196;1298;3056143;-67
2023/04/01 09:55:45;;;;;;;5.30;2.60;;;;;;;7.50;85.33;98785.23;78106;1299;3050231;-68
2023/04/01 09:58:33;;;;;;;7.40;2.70;;;;;;;7.80;83.74;98782.58;78325;1301;3054320;-68
2023/04/01 10:02:03;;;;;;;10.30;4.20;;;;;;;7.98;83.21;98787.09;77862;1309;3051721;-68
2023/04/01 10:04:40;;;;;;;10.30;4.40;;;;;;;7.64;84.00;98791.15;78133;1304;3053975;-72
2023/04/01 10:07:54;;;;;;;8.10;4.40;;;;;;;7.51;84.70;98789.49;78376;1302;3053334;-69
2023/04/01 10:10:42;;;;;;;9.00;3.90;;;;;;;7.49;84.79;98780.92;79246;1298;3068641;-68
2023/04/01 10:13:37;;;;;;;12.50;4.20;;;;;;;7.21;86.31;98780.45;78156;1304;3051815;-69
2023/04/01 10:16:17;;;;;;;8.10;2.90;;;;;;;7.24;86.80;98780.08;78142;1302;3056403;-69
2023/04/01 10:19:10;;;;;;;8.50;3.60;;;;;;;7.88;84.74;98773.34;78072;1301;3049929;-68
2023/04/01 10:21:51;;;;;;;17.50;4.70;;;;;;;8.53;81.42;98770.45;78108;1297;3053756;-66
2023/04/01 10:24:26;;;;;;;12.10;4.40;;;;;;;8.36;80.95;98773.21;78216;1302;3051876;-68
2023/04/01 10:27:15;;;;;;;10.90;4.10;;;;;;;8.00;82.24;98769.83;78181;1305;3053308;-69
2023/04/01 10:30:27;;;;;;;10.10;4.30;;;;;;;7.88;82.53;98774.08;77846;1316;3053172;-70
2023/04/01 10:33:03;;;;;;;8.40;4.50;;;;;;;7.76;82.99;98763.65;78022;1304;3069020;-70
2023/04/01 10:35:55;;;;;;;11.00;4.50;;;;;;;7.75;83.25;98764.53;79512;1299;3013349;-71
2023/04/01 10:38:45;;;;;;;11.80;5.10;;;;;;;7.63;83.78;98769.62;78033;1301;3058102;-71
2023/04/01 10:41:18;;;;;;;5.60;2.60;;;;;;;7.42;85.01;98770.88;78178;1302;3051576;-68
2023/04/01 10:44:33;;;;;;;10.10;3.60;;;;;;;8.06;83.30;98764.61;77983;1315;3051760;-68
2023/04/01 10:47:23;;;;;;;9.20;3.60;;;;;;;8.35;81.57;98758.29;78186;1302;3050935;-70
2023/04/01 10:50:24;;;;;;;11.00;4.00;;;;;;;8.40;81.05;98753.77;78153;1301;3053847;-66
2023/04/01 10:53:02;;;;;;;9.60;4.30;;;;;;;8.42;81.07;98746.55;78307;1302;3053566;-68
2023/04/01 10:56:31;;;;;;;9.10;4.40;;;;;;;8.40;81.47;98754.13;78184;1301;3069159;-68
2023/04/01 10:59:49;;;;;;;15.20;4.50;;;;;;;8.24;82.07;98750.08;78152;1297;3053644;-67
2023/04/01 11:03:18;;;;;;;8.90;4.10;;;;;;;8.21;82.30;98748.54;78268;1299;3057549;-68
2023/04/01 11:06:53;;;;;;;10.40;4.70;;;;;;;7.90;83.73;98755.63;77879;1304;3050941;-66
2023/04/01 11:09:36;;;;;;;8.80;3.60;;;;;;;7.94;84.06;98752.96;78179;1301;3053864;-68
2023/04/01 11:12:22;;;;;;;13.30;4.00;;;;;;;8.64;82.48;98750.38;78130;1299;3050633;-68
2023/04/01 11:14:54;;;;;;;9.70;4.60;;;;;;;9.03;79.88;98749.45;78179;1301;3053882;-70
2023/04/01 11:17:35;;;;;;;15.70;5.60;;;;;;;8.90;79.88;98751.30;79367;1302;3012907;-69
2023/04/01 11:20:22;;;;;;;15.60;6.20;;;;;;;8.79;79.71;98749.95;78149;1305;3069817;-68
2023/04/01 11:23:12;;;;;;;13.90;5.20;;;;;;;8.36;81.56;98750.56;78269;1301;3051803;-69
2023/04/01 11:26:33;;;;;;;11.30;5.80;;;;;;;8.28;82.24;98751.04;78327;1298;3056235;-70
2023/04/01 11:29:26;;;;;;;12.20;5.60;;;;;;;8.22;82.62;98762.36;77730;1310;3050101;-67
2023/04/01 11:32:17;;;;;;;16.20;6.50;;;;;;;8.15;82.82;98754.11;79366;1300;3011823;-69
2023/04/01 11:34:52;;;;;;;12.70;5.40;;;;;;;8.11;83.98;98753.48;78147;1301;3050612;-67
2023/04/01 11:37:34;;;;;;;9.80;4.50;;;;;;;8.54;83.06;98759.56;79378;1304;3011931;-66
2023/04/01 11:40:41;;;;;;;13.80;5.40;;;;;;;9.06;80.47;98749.59;78081;1308;3053942;-68
2023/04/01 11:43:43;;;;;;;27.50;8.70;;;;;;;8.93;80.62;98753.73;78161;1299;3070071;-68
2023/04/01 11:46:47;;;;;;;27.00;9.10;;;;;;;8.72;81.94;98755.43;78218;1298;3051587;-68
2023/04/01 11:49:24;;;;;;;38.30;10.70;;;;;;;8.55;82.90;98758.61;78215;1299;3057096;-68
2023/04/01 11:52:31;;;;;;;41.60;11.70;;;;;;;8.22;84.79;98761.70;78103;1301;3050894;-73
2023/04/01 11:55:18;;;;;;;21.20;8.10;;;;;;;8.22;84.61;98759.94;78277;1300;3054765;-71
2023/04/01 11:58:06;;;;;;;26.00;9.20;;;;;;;8.06;85.43;98755.70;78193;1301;3051253;-70
2023/04/01 12:00:47;;;;;;;11.90;4.70;;;;;;;7.98;86.55;98760.92;78061;1301;3052675;-69
2023/04/01 12:03:43;;;;;;;13.90;5.10;;;;;;;8.51;84.85;98763.58;78114;1301;3054235;-70
2023/04/01 12:06:52;;;;;;;19.00;7.60;;;;;;;9.02;82.56;98759.25;78121;1299;3068656;-70
2023/04/01 12:09:29;;;;;;;17.40;6.90;;;;;;;8.95;82.14;98756.97;78082;1308;3052167;-70
2023/04/01 12:12:13;;;;;;;21.20;7.90;;;;;;;8.72;82.50;98764.04;78240;1301;3056916;-71
2023/04/01 12:15:00;;;;;;;14.80;7.60;;;;;;;8.30;84.51;98760.52;78200;1301;3049669;-69
2023/04/01 12:17:43;;;;;;;19.20;7.90;;;;;;;8.20;84.85;98764.28;78168;1299;3053413;-69
2023/04/01 12:20:12;;;;;;;14.60;6.80;;;;;;;8.21;84.65;98760.20;78126;1301;3051544;-69
2023/04/01 12:22:41;;;;;;;20.80;8.20;;;;;;;7.99;85.52;98764.52;79698;1298;3018460;-66
2023/04/01 12:25:27;;;;;;;12.50;5.80;;;;;;;8.03;85.96;98759.40;78844;1301;3011287;-67